sensor_id;sensor_type;location;lat;lon;timestamp;pressure;altitude;pressure_sealevel;temperature;humidity
22653;BME280;11493;43.344;26.226;2023-02-20T00:01:25;99275.38;;;11.74;74.70
22653;BME280;11493;43.344;26.226;2023-02-20T00:03:52;99281.53;;;11.71;74.60
22653;BME280;11493;43.344;26.226;2023-02-20T00:06:19;99307.47;;;11.70;74.78
22653;BME280;11493;43.344;26.226;2023-02-20T00:08:46;99288.34;;;11.57;75.34
22653;BME280;11493;43.344;26.226;2023-02-20T00:11:13;99290.75;;;11.58;75.66
22653;BME280;11493;43.344;26.226;2023-02-20T00:13:47;99308.28;;;11.62;75.33
22653;BME280;11493;43.344;26.226;2023-02-20T00:16:15;99301.31;;;11.56;75.84
22653;BME280;11493;43.344;26.226;2023-02-20T00:18:43;99301.44;;;11.51;75.84
22653;BME280;11493;43.344;26.226;2023-02-20T00:21:10;99289.44;;;11.47;75.79
22653;BME280;11493;43.344;26.226;2023-02-20T00:23:37;99294.63;;;11.48;75.91
22653;BME280;11493;43.344;26.226;2023-02-20T00:26:08;99283.63;;;11.48;76.04
22653;BME280;11493;43.344;26.226;2023-02-20T00:28:38;99276.47;;;11.39;76.05
22653;BME280;11493;43.344;26.226;2023-02-20T00:31:06;99294.78;;;11.43;75.87
22653;BME280;11493;43.344;26.226;2023-02-20T00:33:35;99289.09;;;11.40;76.45
22653;BME280;11493;43.344;26.226;2023-02-20T00:36:03;99279.06;;;11.44;76.04
22653;BME280;11493;43.344;26.226;2023-02-20T00:38:30;99294.81;;;11.52;75.61
22653;BME280;11493;43.344;26.226;2023-02-20T00:41:00;99283.44;;;11.45;76.03
22653;BME280;11493;43.344;26.226;2023-02-20T00:43:26;99286.84;;;11.42;76.04
22653;BME280;11493;43.344;26.226;2023-02-20T00:45:54;99272.72;;;11.35;76.19
22653;BME280;11493;43.344;26.226;2023-02-20T00:48:21;99281.16;;;11.38;76.22
22653;BME280;11493;43.344;26.226;2023-02-20T00:51:08;99266.44;;;11.43;75.91
22653;BME280;11493;43.344;26.226;2023-02-20T00:53:35;99271.78;;;11.39;76.25
22653;BME280;11493;43.344;26.226;2023-02-20T00:56:02;99269.97;;;11.35;76.22
22653;BME280;11493;43.344;26.226;2023-02-20T00:58:29;99280.81;;;11.31;76.58
22653;BME280;11493;43.344;26.226;2023-02-20T01:00:55;99272.72;;;11.35;76.09
22653;BME280;11493;43.344;26.226;2023-02-20T01:03:22;99264.28;;;11.23;76.59
22653;BME280;11493;43.344;26.226;2023-02-20T01:05:49;99264.91;;;11.19;76.79
22653;BME280;11493;43.344;26.226;2023-02-20T01:08:18;99266.69;;;11.15;77.17
22653;BME280;11493;43.344;26.226;2023-02-20T01:10:45;99281.13;;;11.12;76.96
22653;BME280;11493;43.344;26.226;2023-02-20T01:13:12;99276.91;;;11.15;76.40
22653;BME280;11493;43.344;26.226;2023-02-20T01:15:39;99277.41;;;11.26;75.95
22653;BME280;11493;43.344;26.226;2023-02-20T01:18:06;99268.34;;;11.25;76.30
22653;BME280;11493;43.344;26.226;2023-02-20T01:20:33;99265.06;;;11.14;76.14
22653;BME280;11493;43.344;26.226;2023-02-20T01:23:02;99260.25;;;11.29;75.76
22653;BME280;11493;43.344;26.226;2023-02-20T01:25:29;99265.41;;;11.22;75.80
22653;BME280;11493;43.344;26.226;2023-02-20T01:27:55;99273.00;;;11.16;76.00
22653;BME280;11493;43.344;26.226;2023-02-20T01:30:22;99272.03;;;11.03;76.35
22653;BME280;11493;43.344;26.226;2023-02-20T01:32:49;99279.94;;;10.96;76.60
22653;BME280;11493;43.344;26.226;2023-02-20T01:35:16;99301.50;;;11.03;76.82
22653;BME280;11493;43.344;26.226;2023-02-20T01:37:43;99302.25;;;10.86;77.05
22653;BME280;11493;43.344;26.226;2023-02-20T01:40:17;99307.09;;;10.89;77.09
22653;BME280;11493;43.344;26.226;2023-02-20T01:42:45;99293.69;;;10.96;76.65
22653;BME280;11493;43.344;26.226;2023-02-20T01:47:53;99290.88;;;10.79;77.25
22653;BME280;11493;43.344;26.226;2023-02-20T01:50:24;99294.13;;;10.81;77.31
22653;BME280;11493;43.344;26.226;2023-02-20T01:52:55;99308.66;;;10.73;77.61
22653;BME280;11493;43.344;26.226;2023-02-20T01:55:38;99307.66;;;10.69;77.90
22653;BME280;11493;43.344;26.226;2023-02-20T01:58:14;99309.53;;;10.60;78.37
22653;BME280;11493;43.344;26.226;2023-02-20T02:00:43;99318.31;;;10.62;78.64
22653;BME280;11493;43.344;26.226;2023-02-20T02:03:13;99298.31;;;10.47;78.92
22653;BME280;11493;43.344;26.226;2023-02-20T02:05:44;99312.94;;;10.57;78.63
22653;BME280;11493;43.344;26.226;2023-02-20T02:08:13;99305.56;;;10.43;79.21
22653;BME280;11493;43.344;26.226;2023-02-20T02:11:03;99313.06;;;10.51;79.16
22653;BME280;11493;43.344;26.226;2023-02-20T02:13:34;99316.94;;;10.50;79.70
22653;BME280;11493;43.344;26.226;2023-02-20T02:27:40;99335.72;;;10.26;81.06
22653;BME280;11493;43.344;26.226;2023-02-20T02:39:15;99347.53;;;10.27;81.08
22653;BME280;11493;43.344;26.226;2023-02-20T02:44:41;99358.34;;;10.23;81.13
22653;BME280;11493;43.344;26.226;2023-02-20T02:47:29;99343.44;;;10.02;81.56
22653;BME280;11493;43.344;26.226;2023-02-20T02:50:04;99356.44;;;10.10;81.86
22653;BME280;11493;43.344;26.226;2023-02-20T02:52:33;99353.38;;;10.11;81.71
22653;BME280;11493;43.344;26.226;2023-02-20T02:55:46;99351.13;;;10.13;81.71
22653;BME280;11493;43.344;26.226;2023-02-20T02:58:07;99366.63;;;10.09;81.61
22653;BME280;11493;43.344;26.226;2023-02-20T03:05:49;99368.28;;;9.97;81.94
22653;BME280;11493;43.344;26.226;2023-02-20T03:08:40;99368.47;;;10.00;81.98
22653;BME280;11493;43.344;26.226;2023-02-20T03:11:13;99348.19;;;9.74;82.16
22653;BME280;11493;43.344;26.226;2023-02-20T03:13:48;99378.97;;;9.98;81.84
22653;BME280;11493;43.344;26.226;2023-02-20T03:19:41;99405.13;;;9.96;82.39
22653;BME280;11493;43.344;26.226;2023-02-20T03:24:51;99399.75;;;9.91;82.17
22653;BME280;11493;43.344;26.226;2023-02-20T03:27:36;99395.19;;;9.86;82.68
22653;BME280;11493;43.344;26.226;2023-02-20T03:32:48;99402.72;;;9.80;82.60
22653;BME280;11493;43.344;26.226;2023-02-20T03:35:38;99396.41;;;9.66;82.98
22653;BME280;11493;43.344;26.226;2023-02-20T03:38:24;99403.84;;;9.66;83.18
22653;BME280;11493;43.344;26.226;2023-02-20T03:41:12;99401.25;;;9.61;83.59
22653;BME280;11493;43.344;26.226;2023-02-20T03:44:03;99408.06;;;9.49;83.77
22653;BME280;11493;43.344;26.226;2023-02-20T03:46:32;99400.75;;;9.45;84.38
22653;BME280;11493;43.344;26.226;2023-02-20T03:49:13;99418.03;;;9.45;84.49
22653;BME280;11493;43.344;26.226;2023-02-20T03:51:45;99407.03;;;9.45;84.48
22653;BME280;11493;43.344;26.226;2023-02-20T03:54:23;99416.00;;;9.51;84.66
22653;BME280;11493;43.344;26.226;2023-02-20T03:56:55;99415.19;;;9.37;84.72
22653;BME280;11493;43.344;26.226;2023-02-20T03:59:35;99427.38;;;9.31;85.41
22653;BME280;11493;43.344;26.226;2023-02-20T04:02:13;99433.97;;;9.30;85.30
22653;BME280;11493;43.344;26.226;2023-02-20T04:04:48;99430.81;;;9.22;85.75
22653;BME280;11493;43.344;26.226;2023-02-20T04:08:11;99440.59;;;9.29;85.46
22653;BME280;11493;43.344;26.226;2023-02-20T04:10:39;99460.31;;;9.31;85.71
22653;BME280;11493;43.344;26.226;2023-02-20T04:13:10;99435.50;;;9.36;85.51
22653;BME280;11493;43.344;26.226;2023-02-20T04:15:41;99437.34;;;9.40;85.37
22653;BME280;11493;43.344;26.226;2023-02-20T04:18:14;99450.97;;;9.45;85.32
22653;BME280;11493;43.344;26.226;2023-02-20T04:20:50;99457.72;;;9.53;84.62
22653;BME280;11493;43.344;26.226;2023-02-20T04:23:28;99445.91;;;9.52;84.61
22653;BME280;11493;43.344;26.226;2023-02-20T04:28:26;99436.75;;;9.57;84.34
22653;BME280;11493;43.344;26.226;2023-02-20T04:30:58;99445.91;;;9.52;84.40
22653;BME280;11493;43.344;26.226;2023-02-20T04:33:25;99453.22;;;9.57;84.27
22653;BME280;11493;43.344;26.226;2023-02-20T04:35:57;99460.88;;;9.60;84.44
22653;BME280;11493;43.344;26.226;2023-02-20T04:38:25;99464.72;;;9.59;84.59
22653;BME280;11493;43.344;26.226;2023-02-20T04:40:51;99472.16;;;9.59;84.60
22653;BME280;11493;43.344;26.226;2023-02-20T04:43:20;99447.31;;;9.50;84.86
22653;BME280;11493;43.344;26.226;2023-02-20T04:45:47;99449.97;;;9.55;85.18
22653;BME280;11493;43.344;26.226;2023-02-20T04:48:14;99462.50;;;9.61;85.13
22653;BME280;11493;43.344;26.226;2023-02-20T04:50:41;99451.41;;;9.52;85.47
22653;BME280;11493;43.344;26.226;2023-02-20T04:53:10;99469.19;;;9.55;85.67
22653;BME280;11493;43.344;26.226;2023-02-20T04:55:37;99462.06;;;9.54;85.73
22653;BME280;11493;43.344;26.226;2023-02-20T04:58:09;99470.72;;;9.61;85.55
22653;BME280;11493;43.344;26.226;2023-02-20T05:00:48;99476.41;;;9.51;85.91
22653;BME280;11493;43.344;26.226;2023-02-20T05:03:15;99481.94;;;9.65;85.73
22653;BME280;11493;43.344;26.226;2023-02-20T05:05:42;99488.09;;;9.70;85.19
22653;BME280;11493;43.344;26.226;2023-02-20T05:08:09;99492.47;;;9.71;85.12
22653;BME280;11493;43.344;26.226;2023-02-20T05:10:36;99495.66;;;9.65;85.18
22653;BME280;11493;43.344;26.226;2023-02-20T05:13:03;99501.88;;;9.57;85.31
22653;BME280;11493;43.344;26.226;2023-02-20T05:15:31;99509.50;;;9.60;85.11
22653;BME280;11493;43.344;26.226;2023-02-20T05:17:58;99515.91;;;9.55;85.77
22653;BME280;11493;43.344;26.226;2023-02-20T05:20:25;99519.66;;;9.59;85.58
22653;BME280;11493;43.344;26.226;2023-02-20T05:23:12;99522.94;;;9.61;85.01
22653;BME280;11493;43.344;26.226;2023-02-20T05:25:39;99523.13;;;9.65;84.91
22653;BME280;11493;43.344;26.226;2023-02-20T05:28:06;99528.94;;;9.63;85.15
22653;BME280;11493;43.344;26.226;2023-02-20T05:30:33;99528.72;;;9.60;85.35
22653;BME280;11493;43.344;26.226;2023-02-20T05:33:00;99511.13;;;9.61;85.19
22653;BME280;11493;43.344;26.226;2023-02-20T05:35:27;99530.75;;;9.68;85.15
22653;BME280;11493;43.344;26.226;2023-02-20T05:37:54;99531.66;;;9.49;85.46
22653;BME280;11493;43.344;26.226;2023-02-20T05:40:21;99556.06;;;9.51;85.92
22653;BME280;11493;43.344;26.226;2023-02-20T05:42:47;99561.22;;;9.39;86.48
22653;BME280;11493;43.344;26.226;2023-02-20T05:45:14;99573.25;;;9.43;85.74
22653;BME280;11493;43.344;26.226;2023-02-20T05:47:41;99561.84;;;9.36;86.40
22653;BME280;11493;43.344;26.226;2023-02-20T05:50:08;99561.44;;;9.42;86.30
22653;BME280;11493;43.344;26.226;2023-02-20T05:52:36;99571.28;;;9.30;86.39
22653;BME280;11493;43.344;26.226;2023-02-20T05:55:03;99583.41;;;9.42;85.59
22653;BME280;11493;43.344;26.226;2023-02-20T05:57:30;99596.63;;;9.40;85.83
22653;BME280;11493;43.344;26.226;2023-02-20T05:59:57;99598.25;;;9.41;85.61
22653;BME280;11493;43.344;26.226;2023-02-20T06:02:24;99598.44;;;9.31;86.52
22653;BME280;11493;43.344;26.226;2023-02-20T06:04:51;99590.28;;;9.26;86.96
22653;BME280;11493;43.344;26.226;2023-02-20T06:07:18;99603.72;;;9.28;87.28
22653;BME280;11493;43.344;26.226;2023-02-20T06:09:45;99610.81;;;9.29;86.94
22653;BME280;11493;43.344;26.226;2023-02-20T06:12:12;99608.53;;;9.36;86.20
22653;BME280;11493;43.344;26.226;2023-02-20T06:14:40;99618.81;;;9.44;85.84
22653;BME280;11493;43.344;26.226;2023-02-20T06:17:07;99620.03;;;9.38;86.48
22653;BME280;11493;43.344;26.226;2023-02-20T06:19:34;99629.16;;;9.33;86.64
22653;BME280;11493;43.344;26.226;2023-02-20T06:22:01;99639.47;;;9.22;86.63
22653;BME280;11493;43.344;26.226;2023-02-20T06:24:28;99650.69;;;9.26;86.46
22653;BME280;11493;43.344;26.226;2023-02-20T06:26:55;99645.50;;;9.25;86.61
22653;BME280;11493;43.344;26.226;2023-02-20T06:29:22;99649.88;;;9.26;86.16
22653;BME280;11493;43.344;26.226;2023-02-20T06:31:49;99649.06;;;9.06;86.43
22653;BME280;11493;43.344;26.226;2023-02-20T06:34:17;99669.00;;;9.12;87.70
22653;BME280;11493;43.344;26.226;2023-02-20T06:36:44;99662.78;;;9.06;87.26
22653;BME280;11493;43.344;26.226;2023-02-20T06:39:13;99671.38;;;9.18;86.50
22653;BME280;11493;43.344;26.226;2023-02-20T06:41:40;99658.94;;;9.07;86.51
22653;BME280;11493;43.344;26.226;2023-02-20T06:44:07;99669.47;;;9.19;86.67
22653;BME280;11493;43.344;26.226;2023-02-20T06:46:34;99667.22;;;9.21;86.35
22653;BME280;11493;43.344;26.226;2023-02-20T06:49:01;99672.44;;;9.22;85.79
22653;BME280;11493;43.344;26.226;2023-02-20T06:51:31;99662.25;;;9.04;86.62
22653;BME280;11493;43.344;26.226;2023-02-20T06:54:00;99668.94;;;8.98;87.00
22653;BME280;11493;43.344;26.226;2023-02-20T06:56:29;99676.44;;;9.11;87.03
22653;BME280;11493;43.344;26.226;2023-02-20T06:58:57;99657.81;;;9.08;86.44
22653;BME280;11493;43.344;26.226;2023-02-20T07:01:26;99685.63;;;9.20;86.11
22653;BME280;11493;43.344;26.226;2023-02-20T07:03:55;99691.66;;;9.22;85.78
22653;BME280;11493;43.344;26.226;2023-02-20T07:06:24;99686.38;;;9.07;86.49
22653;BME280;11493;43.344;26.226;2023-02-20T07:08:51;99683.78;;;9.16;85.74
22653;BME280;11493;43.344;26.226;2023-02-20T07:11:20;99695.06;;;9.14;85.91
22653;BME280;11493;43.344;26.226;2023-02-20T07:13:47;99698.31;;;9.16;86.49
22653;BME280;11493;43.344;26.226;2023-02-20T07:16:14;99708.78;;;9.14;85.65
22653;BME280;11493;43.344;26.226;2023-02-20T07:18:41;99716.34;;;9.22;85.72
22653;BME280;11493;43.344;26.226;2023-02-20T07:21:08;99715.31;;;9.18;85.00
22653;BME280;11493;43.344;26.226;2023-02-20T07:23:36;99718.13;;;9.13;85.36
22653;BME280;11493;43.344;26.226;2023-02-20T07:26:03;99723.63;;;9.13;84.26
22653;BME280;11493;43.344;26.226;2023-02-20T07:28:30;99717.44;;;9.03;84.62
22653;BME280;11493;43.344;26.226;2023-02-20T07:30:56;99734.66;;;9.08;84.72
22653;BME280;11493;43.344;26.226;2023-02-20T07:33:23;99726.66;;;9.12;84.39
22653;BME280;11493;43.344;26.226;2023-02-20T07:35:50;99732.50;;;9.05;84.12
22653;BME280;11493;43.344;26.226;2023-02-20T07:38:17;99746.03;;;9.20;83.92
22653;BME280;11493;43.344;26.226;2023-02-20T07:40:44;99735.72;;;9.12;84.17
22653;BME280;11493;43.344;26.226;2023-02-20T07:43:10;99741.28;;;9.26;84.82
22653;BME280;11493;43.344;26.226;2023-02-20T07:45:37;99758.66;;;9.21;85.88
22653;BME280;11493;43.344;26.226;2023-02-20T07:48:05;99758.56;;;9.08;86.52
22653;BME280;11493;43.344;26.226;2023-02-20T07:50:33;99772.00;;;9.09;86.58
22653;BME280;11493;43.344;26.226;2023-02-20T07:53:00;99769.25;;;9.09;87.12
22653;BME280;11493;43.344;26.226;2023-02-20T07:55:27;99765.16;;;9.07;86.21
22653;BME280;11493;43.344;26.226;2023-02-20T07:57:54;99762.88;;;9.14;86.36
22653;BME280;11493;43.344;26.226;2023-02-20T08:00:25;99752.56;;;9.25;85.45
22653;BME280;11493;43.344;26.226;2023-02-20T08:02:52;99758.59;;;9.27;84.84
22653;BME280;11493;43.344;26.226;2023-02-20T08:05:19;99773.31;;;9.12;85.33
22653;BME280;11493;43.344;26.226;2023-02-20T08:07:48;99783.72;;;9.15;86.01
22653;BME280;11493;43.344;26.226;2023-02-20T08:10:18;99770.81;;;9.15;84.56
22653;BME280;11493;43.344;26.226;2023-02-20T08:12:46;99784.72;;;9.43;84.84
22653;BME280;11493;43.344;26.226;2023-02-20T08:15:14;99770.91;;;9.67;84.75
22653;BME280;11493;43.344;26.226;2023-02-20T08:17:43;99774.97;;;9.69;82.77
22653;BME280;11493;43.344;26.226;2023-02-20T08:20:16;99778.25;;;9.34;77.26
22653;BME280;11493;43.344;26.226;2023-02-20T08:22:44;99792.75;;;9.58;75.95
22653;BME280;11493;43.344;26.226;2023-02-20T08:25:11;99794.44;;;9.73;73.99
22653;BME280;11493;43.344;26.226;2023-02-20T08:27:47;99802.66;;;9.92;70.93
22653;BME280;11493;43.344;26.226;2023-02-20T08:30:19;99802.16;;;9.89;70.21
22653;BME280;11493;43.344;26.226;2023-02-20T08:32:50;99797.78;;;9.70;70.24
22653;BME280;11493;43.344;26.226;2023-02-20T08:35:17;99818.13;;;9.69;70.34
22653;BME280;11493;43.344;26.226;2023-02-20T08:37:44;99819.38;;;9.76;70.51
22653;BME280;11493;43.344;26.226;2023-02-20T08:40:12;99826.06;;;9.89;69.90
22653;BME280;11493;43.344;26.226;2023-02-20T08:42:39;99827.94;;;9.75;70.27
22653;BME280;11493;43.344;26.226;2023-02-20T08:45:08;99836.31;;;9.83;69.69
22653;BME280;11493;43.344;26.226;2023-02-20T08:47:35;99835.88;;;9.76;69.82
22653;BME280;11493;43.344;26.226;2023-02-20T08:50:02;99835.13;;;9.71;69.85
22653;BME280;11493;43.344;26.226;2023-02-20T08:52:29;99833.38;;;9.61;70.32
22653;BME280;11493;43.344;26.226;2023-02-20T08:54:56;99837.44;;;9.45;71.07
22653;BME280;11493;43.344;26.226;2023-02-20T08:57:23;99837.38;;;9.50;71.02
22653;BME280;11493;43.344;26.226;2023-02-20T08:59:50;99852.22;;;9.49;71.40
22653;BME280;11493;43.344;26.226;2023-02-20T09:02:19;99840.63;;;9.52;70.82
22653;BME280;11493;43.344;26.226;2023-02-20T09:04:47;99847.09;;;9.42;71.66
22653;BME280;11493;43.344;26.226;2023-02-20T09:07:14;99845.91;;;9.48;71.77
22653;BME280;11493;43.344;26.226;2023-02-20T09:09:41;99852.91;;;9.60;71.33
22653;BME280;11493;43.344;26.226;2023-02-20T09:12:08;99845.00;;;9.72;70.78
22653;BME280;11493;43.344;26.226;2023-02-20T09:14:35;99849.84;;;9.61;71.58
22653;BME280;11493;43.344;26.226;2023-02-20T09:17:03;99857.19;;;9.84;71.09
22653;BME280;11493;43.344;26.226;2023-02-20T09:19:31;99868.41;;;10.07;70.11
22653;BME280;11493;43.344;26.226;2023-02-20T09:21:58;99871.81;;;10.17;70.45
22653;BME280;11493;43.344;26.226;2023-02-20T09:24:26;99859.41;;;10.39;70.38
22653;BME280;11493;43.344;26.226;2023-02-20T09:27:00;99858.44;;;10.62;70.33
22653;BME280;11493;43.344;26.226;2023-02-20T09:29:28;99860.25;;;10.53;71.93
22653;BME280;11493;43.344;26.226;2023-02-20T09:31:55;99857.03;;;10.65;72.22
22653;BME280;11493;43.344;26.226;2023-02-20T09:34:23;99857.72;;;10.57;71.75
22653;BME280;11493;43.344;26.226;2023-02-20T09:36:50;99846.97;;;10.41;71.75
22653;BME280;11493;43.344;26.226;2023-02-20T09:39:18;99852.44;;;10.09;72.87
22653;BME280;11493;43.344;26.226;2023-02-20T09:45:24;99855.56;;;10.53;71.45
22653;BME280;11493;43.344;26.226;2023-02-20T09:50:37;99868.03;;;10.65;67.37
22653;BME280;11493;43.344;26.226;2023-02-20T09:53:17;99871.47;;;10.57;67.64
22653;BME280;11493;43.344;26.226;2023-02-20T09:55:47;99870.44;;;10.52;67.36
22653;BME280;11493;43.344;26.226;2023-02-20T09:58:27;99870.22;;;10.49;67.87
22653;BME280;11493;43.344;26.226;2023-02-20T10:00:59;99836.09;;;9.80;69.49
22653;BME280;11493;43.344;26.226;2023-02-20T10:03:35;99874.66;;;10.31;68.90
22653;BME280;11493;43.344;26.226;2023-02-20T10:06:14;99873.16;;;10.39;67.65
22653;BME280;11493;43.344;26.226;2023-02-20T10:08:42;99865.22;;;10.37;67.20
22653;BME280;11493;43.344;26.226;2023-02-20T10:11:15;99851.63;;;10.08;67.79
22653;BME280;11493;43.344;26.226;2023-02-20T10:14:20;99862.03;;;10.11;67.95
22653;BME280;11493;43.344;26.226;2023-02-20T10:17:09;99855.13;;;10.33;67.41
22653;BME280;11493;43.344;26.226;2023-02-20T10:22:25;99843.00;;;10.34;67.72
22653;BME280;11493;43.344;26.226;2023-02-20T10:28:11;99835.78;;;10.19;67.65
22653;BME280;11493;43.344;26.226;2023-02-20T10:30:45;99833.50;;;10.07;68.21
22653;BME280;11493;43.344;26.226;2023-02-20T10:33:34;99828.88;;;10.03;67.16
22653;BME280;11493;43.344;26.226;2023-02-20T10:36:33;99841.22;;;9.86;68.38
22653;BME280;11493;43.344;26.226;2023-02-20T10:39:12;99816.13;;;9.74;68.75
22653;BME280;11493;43.344;26.226;2023-02-20T10:47:32;99835.34;;;9.37;71.54
22653;BME280;11493;43.344;26.226;2023-02-20T10:50:22;99838.81;;;9.23;72.68
22653;BME280;11493;43.344;26.226;2023-02-20T10:53:06;99845.09;;;9.48;71.91
22653;BME280;11493;43.344;26.226;2023-02-20T10:55:43;99836.31;;;9.83;71.09
22653;BME280;11493;43.344;26.226;2023-02-20T10:58:30;99845.75;;;10.34;70.00
22653;BME280;11493;43.344;26.226;2023-02-20T11:01:05;99801.53;;;10.30;68.88
22653;BME280;11493;43.344;26.226;2023-02-20T11:03:39;99834.19;;;10.64;69.40
22653;BME280;11493;43.344;26.226;2023-02-20T11:06:12;99832.78;;;10.67;68.80
22653;BME280;11493;43.344;26.226;2023-02-20T11:08:40;99829.63;;;10.87;68.69
22653;BME280;11493;43.344;26.226;2023-02-20T11:11:32;99829.44;;;10.97;67.74
22653;BME280;11493;43.344;26.226;2023-02-20T11:14:07;99816.19;;;10.99;68.27
22653;BME280;11493;43.344;26.226;2023-02-20T11:16:40;99819.53;;;10.69;68.52
22653;BME280;11493;43.344;26.226;2023-02-20T11:19:19;99818.59;;;10.73;68.88
22653;BME280;11493;43.344;26.226;2023-02-20T11:21:49;99810.94;;;10.57;68.45
22653;BME280;11493;43.344;26.226;2023-02-20T11:24:28;99824.75;;;10.84;68.36
22653;BME280;11493;43.344;26.226;2023-02-20T11:26:59;99823.31;;;10.73;68.53
22653;BME280;11493;43.344;26.226;2023-02-20T11:29:34;99817.69;;;10.78;68.64
22653;BME280;11493;43.344;26.226;2023-02-20T11:37:30;99802.16;;;11.37;67.45
22653;BME280;11493;43.344;26.226;2023-02-20T11:40:03;99806.13;;;11.58;65.94
22653;BME280;11493;43.344;26.226;2023-02-20T11:42:33;99806.22;;;11.53;66.27
22653;BME280;11493;43.344;26.226;2023-02-20T11:45:25;99797.44;;;11.65;65.54
22653;BME280;11493;43.344;26.226;2023-02-20T11:50:43;99793.09;;;12.08;63.45
22653;BME280;11493;43.344;26.226;2023-02-20T11:53:36;99796.59;;;12.23;62.75
22653;BME280;11493;43.344;26.226;2023-02-20T11:56:13;99793.94;;;12.62;62.32
22653;BME280;11493;43.344;26.226;2023-02-20T11:58:42;99795.88;;;12.62;61.55
22653;BME280;11493;43.344;26.226;2023-02-20T12:01:30;99788.88;;;12.64;61.42
22653;BME280;11493;43.344;26.226;2023-02-20T12:03:59;99788.63;;;12.83;61.39
22653;BME280;11493;43.344;26.226;2023-02-20T12:09:01;99790.50;;;12.57;58.68
22653;BME280;11493;43.344;26.226;2023-02-20T12:11:29;99794.66;;;12.45;59.60
22653;BME280;11493;43.344;26.226;2023-02-20T12:13:58;99796.19;;;12.60;60.31
22653;BME280;11493;43.344;26.226;2023-02-20T12:21:48;99803.31;;;12.30;60.51
22653;BME280;11493;43.344;26.226;2023-02-20T12:30:31;99803.09;;;12.80;59.82
22653;BME280;11493;43.344;26.226;2023-02-20T12:38:48;99792.25;;;13.32;58.36
22653;BME280;11493;43.344;26.226;2023-02-20T12:41:34;99801.84;;;13.34;58.61
22653;BME280;11493;43.344;26.226;2023-02-20T12:47:21;99797.34;;;13.07;56.23
22653;BME280;11493;43.344;26.226;2023-02-20T13:01:32;99791.81;;;13.07;55.44
22653;BME280;11493;43.344;26.226;2023-02-20T13:04:19;99782.34;;;12.91;54.99
22653;BME280;11493;43.344;26.226;2023-02-20T13:09:20;99781.91;;;13.06;55.42
22653;BME280;11493;43.344;26.226;2023-02-20T13:11:55;99780.84;;;12.85;54.20
22653;BME280;11493;43.344;26.226;2023-02-20T13:14:37;99776.94;;;12.86;54.31
22653;BME280;11493;43.344;26.226;2023-02-20T13:22:33;99784.38;;;12.15;53.36
22653;BME280;11493;43.344;26.226;2023-02-20T13:25:36;99793.53;;;12.02;52.61
22653;BME280;11493;43.344;26.226;2023-02-20T13:30:39;99790.91;;;12.19;51.38
22653;BME280;11493;43.344;26.226;2023-02-20T13:33:21;99794.03;;;12.04;51.32
22653;BME280;11493;43.344;26.226;2023-02-20T13:35:56;99782.50;;;12.02;51.94
22653;BME280;11493;43.344;26.226;2023-02-20T13:38:25;99779.47;;;11.90;52.91
22653;BME280;11493;43.344;26.226;2023-02-20T13:46:11;99779.22;;;12.00;51.99
22653;BME280;11493;43.344;26.226;2023-02-20T13:48:41;99784.63;;;12.05;51.73
22653;BME280;11493;43.344;26.226;2023-02-20T13:53:56;99781.63;;;12.15;50.09
22653;BME280;11493;43.344;26.226;2023-02-20T13:59:09;99778.31;;;11.82;50.85
22653;BME280;11493;43.344;26.226;2023-02-20T14:02:01;99778.19;;;11.87;50.86
22653;BME280;11493;43.344;26.226;2023-02-20T14:04:29;99770.44;;;11.75;51.64
22653;BME280;11493;43.344;26.226;2023-02-20T14:06:56;99792.66;;;11.93;52.00
22653;BME280;11493;43.344;26.226;2023-02-20T14:09:27;99782.88;;;11.87;50.62
22653;BME280;11493;43.344;26.226;2023-02-20T14:12:11;99778.31;;;11.82;51.39
22653;BME280;11493;43.344;26.226;2023-02-20T14:14:40;99782.88;;;11.87;50.74
22653;BME280;11493;43.344;26.226;2023-02-20T14:17:19;99798.47;;;11.91;51.00
22653;BME280;11493;43.344;26.226;2023-02-20T14:19:59;99794.91;;;11.91;51.42
22653;BME280;11493;43.344;26.226;2023-02-20T14:22:42;99780.47;;;11.71;51.48
22653;BME280;11493;43.344;26.226;2023-02-20T14:25:24;99785.16;;;11.84;51.55
22653;BME280;11493;43.344;26.226;2023-02-20T14:28:03;99781.88;;;11.82;51.40
22653;BME280;11493;43.344;26.226;2023-02-20T14:30:31;99773.72;;;11.77;51.79
22653;BME280;11493;43.344;26.226;2023-02-20T14:32:58;99796.28;;;11.79;51.79
22653;BME280;11493;43.344;26.226;2023-02-20T14:41:23;99805.50;;;11.61;52.82
22653;BME280;11493;43.344;26.226;2023-02-20T14:43:59;99802.16;;;11.50;53.03
22653;BME280;11493;43.344;26.226;2023-02-20T14:46:35;99794.41;;;11.39;52.45
22653;BME280;11493;43.344;26.226;2023-02-20T14:49:15;99796.84;;;11.40;52.44
22653;BME280;11493;43.344;26.226;2023-02-20T14:51:42;99798.50;;;11.41;53.69
22653;BME280;11493;43.344;26.226;2023-02-20T14:54:21;99800.94;;;11.43;53.54
22653;BME280;11493;43.344;26.226;2023-02-20T14:56:50;99797.78;;;11.36;53.84
22653;BME280;11493;43.344;26.226;2023-02-20T14:59:23;99794.81;;;11.32;53.84
22653;BME280;11493;43.344;26.226;2023-02-20T15:01:56;99806.34;;;11.34;54.08
22653;BME280;11493;43.344;26.226;2023-02-20T15:04:25;99802.78;;;11.34;54.63
22653;BME280;11493;43.344;26.226;2023-02-20T15:06:59;99799.13;;;11.25;55.08
22653;BME280;11493;43.344;26.226;2023-02-20T15:09:41;99770.19;;;11.13;55.41
22653;BME280;11493;43.344;26.226;2023-02-20T15:12:23;99789.72;;;11.26;55.37
22653;BME280;11493;43.344;26.226;2023-02-20T15:15:27;99782.19;;;11.17;55.12
22653;BME280;11493;43.344;26.226;2023-02-20T15:17:46;99791.31;;;11.04;55.45
22653;BME280;11493;43.344;26.226;2023-02-20T15:20:19;99783.66;;;11.01;55.69
22653;BME280;11493;43.344;26.226;2023-02-20T15:22:46;99779.88;;;10.97;55.81
22653;BME280;11493;43.344;26.226;2023-02-20T15:25:29;99798.13;;;10.93;56.24
22653;BME280;11493;43.344;26.226;2023-02-20T15:28:33;99798.44;;;10.92;56.66
22653;BME280;11493;43.344;26.226;2023-02-20T15:33:37;99794.03;;;10.77;57.19